createdAt,value
2018-12-21T00:01:51.000Z,3.03
2018-12-21T00:04:23.366Z,3.77
2018-12-21T00:06:55.714Z,3.23
2018-12-21T00:09:28.052Z,3.43
2018-12-21T00:12:00.401Z,2.83
2018-12-21T00:14:32.767Z,2.90
2018-12-21T00:17:05.115Z,2.57
2018-12-21T00:19:37.472Z,2.17
2018-12-21T00:22:09.832Z,2.17
2018-12-21T00:24:42.204Z,2.80
2018-12-21T00:27:14.542Z,2.70
2018-12-21T00:29:47.184Z,2.60
2018-12-21T00:32:19.549Z,2.40
2018-12-21T00:34:51.904Z,2.60
2018-12-21T00:37:24.227Z,2.67
2018-12-21T00:39:56.534Z,2.20
2018-12-21T00:42:28.856Z,2.40
2018-12-21T00:45:01.230Z,2.40
2018-12-21T00:47:33.531Z,2.60
2018-12-21T00:50:06.991Z,2.30
2018-12-21T00:52:39.339Z,2.17
2018-12-21T00:55:11.682Z,2.33
2018-12-21T00:57:43.989Z,2.30
2018-12-21T01:00:18.351Z,2.63
2018-12-21T01:02:50.665Z,2.30
2018-12-21T01:05:23.002Z,2.33
2018-12-21T01:07:55.343Z,2.37
2018-12-21T01:10:27.640Z,2.73
2018-12-21T01:12:59.946Z,2.40
2018-12-21T01:15:32.285Z,2.40
2018-12-21T01:18:04.605Z,2.00
2018-12-21T01:20:36.963Z,2.30
2018-12-21T01:23:09.277Z,2.40
2018-12-21T01:25:41.886Z,2.20
2018-12-21T01:28:14.193Z,2.17
2018-12-21T01:30:46.531Z,2.23
2018-12-21T01:33:18.855Z,2.30
2018-12-21T01:35:51.202Z,2.80
2018-12-21T01:38:23.532Z,2.90
2018-12-21T01:40:55.964Z,2.50
2018-12-21T01:43:28.291Z,2.20
2018-12-21T01:46:00.980Z,2.60
2018-12-21T01:48:33.277Z,2.57
2018-12-21T01:51:05.620Z,2.50
2018-12-21T02:00:36.437Z,2.37
2018-12-21T02:03:08.775Z,2.73
2018-12-21T02:05:41.112Z,2.43
2018-12-21T02:08:13.464Z,2.60
2018-12-21T02:10:45.822Z,2.90
2018-12-21T02:13:18.154Z,2.10
2018-12-21T02:15:50.500Z,2.23
2018-12-21T02:18:22.847Z,2.50
2018-12-21T02:20:55.175Z,2.57
2018-12-21T02:23:27.484Z,2.50
2018-12-21T02:25:59.810Z,2.30
2018-12-21T02:28:32.134Z,2.50
2018-12-21T02:31:04.466Z,2.20
2018-12-21T02:33:37.085Z,2.13
2018-12-21T02:36:09.700Z,2.07
2018-12-21T02:38:42.117Z,1.97
2018-12-21T02:41:14.434Z,2.13
2018-12-21T02:43:46.754Z,2.40
2018-12-21T02:46:19.093Z,2.33
2018-12-21T02:48:51.398Z,2.57
2018-12-21T02:51:23.730Z,2.07
2018-12-21T02:53:56.030Z,1.87
2018-12-21T02:56:28.346Z,2.10
2018-12-21T02:59:00.651Z,2.50
2018-12-21T03:01:32.974Z,2.33
2018-12-21T03:04:05.525Z,2.60
2018-12-21T03:06:38.163Z,2.10
2018-12-21T03:09:10.478Z,1.90
2018-12-21T03:11:42.900Z,2.97
2018-12-21T03:14:15.208Z,2.60
2018-12-21T03:16:47.538Z,2.20
2018-12-21T03:19:19.842Z,2.07
2018-12-21T03:21:52.156Z,2.20
2018-12-21T03:24:24.580Z,2.20
2018-12-21T03:26:57.235Z,2.23
2018-12-21T03:29:29.558Z,2.57
2018-12-21T03:32:01.999Z,1.60
2018-12-21T03:34:34.410Z,2.20
2018-12-21T03:37:06.809Z,2.23
2018-12-21T03:39:39.139Z,1.70
2018-12-21T03:42:11.529Z,1.93
2018-12-21T03:44:43.858Z,1.70
2018-12-21T03:47:16.163Z,2.00
2018-12-21T03:49:48.487Z,2.20
2018-12-21T03:52:24.433Z,2.40
2018-12-21T03:54:55.103Z,1.87
2018-12-21T03:57:27.490Z,2.13
2018-12-21T03:59:59.794Z,2.00
2018-12-21T04:02:32.178Z,2.10
2018-12-21T04:05:04.550Z,1.90
2018-12-21T04:07:36.937Z,2.10
2018-12-21T04:10:09.334Z,2.07
2018-12-21T04:12:41.879Z,2.30
2018-12-21T04:15:14.228Z,1.67
2018-12-21T04:17:46.513Z,1.60
2018-12-21T04:20:18.865Z,1.60
2018-12-21T04:22:51.254Z,1.93
2018-12-21T04:25:23.923Z,2.07
2018-12-21T04:27:56.237Z,1.87
2018-12-21T04:30:29.151Z,1.90
2018-12-21T04:33:01.602Z,2.07
2018-12-21T04:35:33.922Z,1.70
2018-12-21T04:38:06.262Z,1.70
2018-12-21T04:40:38.658Z,1.80
2018-12-21T04:43:10.954Z,1.70
2018-12-21T04:45:43.288Z,1.90
2018-12-21T04:48:15.705Z,1.80
2018-12-21T04:50:48.015Z,1.87
2018-12-21T04:53:20.335Z,1.80
2018-12-21T04:55:52.659Z,1.90
2018-12-21T04:58:25.006Z,2.00
2018-12-21T05:00:57.335Z,2.10
2018-12-21T05:03:29.674Z,1.50
2018-12-21T05:06:02.010Z,2.20
2018-12-21T05:08:34.335Z,1.90
2018-12-21T05:11:06.830Z,1.60
2018-12-21T05:13:39.138Z,1.83
2018-12-21T05:16:11.458Z,1.80
2018-12-21T05:18:43.933Z,1.70
2018-12-21T05:21:16.366Z,1.40
2018-12-21T05:23:48.687Z,1.27
2018-12-21T05:26:21.034Z,1.60
2018-12-21T05:28:53.382Z,1.60
2018-12-21T05:31:28.564Z,1.50
2018-12-21T05:34:00.010Z,1.40
2018-12-21T05:36:32.543Z,2.07
2018-12-21T05:39:05.485Z,1.50
2018-12-21T05:41:37.802Z,1.47
2018-12-21T05:44:10.227Z,1.67
2018-12-21T05:46:42.535Z,1.60
2018-12-21T05:49:14.850Z,1.37
2018-12-21T05:51:47.161Z,1.20
2018-12-21T05:54:19.477Z,1.37
2018-12-21T05:56:51.803Z,1.20
2018-12-21T05:59:24.112Z,1.43
2018-12-21T06:01:56.438Z,1.20
2018-12-21T06:04:28.755Z,1.27
2018-12-21T06:07:01.125Z,1.30
2018-12-21T06:09:33.434Z,1.30
2018-12-21T06:12:05.959Z,1.17
2018-12-21T06:14:38.327Z,1.40
2018-12-21T06:17:10.694Z,1.50
2018-12-21T06:19:42.994Z,1.30
2018-12-21T06:22:15.573Z,1.40
2018-12-21T06:24:47.889Z,1.40
2018-12-21T06:27:20.197Z,1.73
2018-12-21T06:29:52.775Z,1.50
2018-12-21T06:32:25.120Z,1.47
2018-12-21T06:34:57.440Z,1.50
2018-12-21T06:37:29.782Z,1.70
2018-12-21T06:40:02.099Z,1.57
2018-12-21T06:42:34.511Z,1.40
2018-12-21T06:45:06.841Z,1.50
2018-12-21T06:47:39.174Z,1.43
2018-12-21T06:50:11.579Z,1.60
2018-12-21T06:52:43.900Z,1.23
2018-12-21T06:55:16.326Z,1.50
2018-12-21T06:57:48.645Z,1.50
2018-12-21T07:00:20.991Z,1.40
2018-12-21T07:02:53.418Z,1.60
2018-12-21T07:05:26.113Z,1.30
2018-12-21T07:07:58.427Z,1.43
2018-12-21T07:10:30.734Z,1.27
2018-12-21T07:13:03.189Z,1.40
2018-12-21T07:15:35.534Z,1.57
2018-12-21T07:18:07.855Z,1.50
2018-12-21T07:20:40.378Z,1.40
2018-12-21T07:23:12.718Z,1.60
2018-12-21T07:25:45.026Z,1.87
2018-12-21T07:28:17.424Z,2.00
2018-12-21T07:30:49.752Z,2.20
2018-12-21T07:33:22.065Z,1.90
2018-12-21T07:35:54.374Z,2.00
2018-12-21T07:38:26.918Z,1.80
2018-12-21T07:40:59.223Z,1.80
2018-12-21T07:43:31.561Z,1.97
2018-12-21T07:46:03.888Z,2.10
2018-12-21T07:48:36.242Z,2.00
2018-12-21T07:51:08.546Z,1.87
2018-12-21T07:53:41.161Z,2.10
2018-12-21T07:56:13.523Z,1.83
2018-12-21T07:58:45.884Z,1.50
2018-12-21T08:01:18.288Z,1.43
2018-12-21T08:03:50.595Z,1.40
2018-12-21T08:06:22.911Z,1.87
2018-12-21T08:08:55.250Z,1.40
2018-12-21T08:11:28.214Z,1.53
2018-12-21T08:14:00.566Z,1.83
2018-12-21T08:16:32.870Z,1.90
2018-12-21T08:19:05.185Z,1.77
2018-12-21T08:21:37.487Z,1.40
2018-12-21T08:24:09.828Z,1.30
2018-12-21T08:26:42.201Z,1.60
2018-12-21T08:29:14.545Z,1.50
2018-12-21T08:31:46.865Z,1.80
2018-12-21T08:34:19.251Z,1.60
2018-12-21T08:36:51.916Z,1.90
2018-12-21T08:39:24.254Z,1.60
2018-12-21T08:41:56.589Z,2.00
2018-12-21T08:44:28.923Z,1.47
2018-12-21T08:47:01.458Z,1.77
2018-12-21T08:49:33.783Z,1.93
2018-12-21T08:52:06.155Z,1.70
2018-12-21T08:54:38.501Z,1.80
2018-12-21T08:57:10.794Z,1.73
2018-12-21T08:59:43.411Z,1.83
2018-12-21T09:02:16.028Z,1.77
2018-12-21T09:04:48.675Z,1.87
2018-12-21T09:07:20.994Z,2.07
2018-12-21T09:09:53.606Z,1.83
2018-12-21T09:12:25.951Z,1.90
2018-12-21T09:14:58.274Z,2.03
2018-12-21T09:17:30.647Z,1.80
2018-12-21T09:20:03.081Z,2.20
2018-12-21T09:22:35.461Z,2.10
2018-12-21T09:25:07.828Z,2.10
2018-12-21T09:27:40.139Z,1.87
2018-12-21T09:30:13.395Z,2.20
2018-12-21T09:32:45.735Z,2.10
2018-12-21T09:35:18.042Z,2.10
2018-12-21T09:37:50.353Z,2.43
2018-12-21T09:40:22.905Z,1.83
2018-12-21T09:42:55.246Z,1.93
2018-12-21T09:45:27.627Z,2.57
2018-12-21T09:48:00.477Z,1.90
2018-12-21T09:50:32.851Z,2.43
2018-12-21T09:53:05.223Z,2.20
2018-12-21T09:55:37.576Z,2.30
2018-12-21T09:58:09.894Z,2.20
2018-12-21T10:00:42.226Z,2.12
2018-12-21T10:03:14.549Z,1.83
2018-12-21T10:05:46.863Z,2.70
2018-12-21T10:08:19.191Z,2.10
2018-12-21T10:10:51.533Z,2.60
2018-12-21T10:13:24.134Z,2.80
2018-12-21T10:15:56.450Z,4.07
2018-12-21T10:18:28.770Z,2.90
2018-12-21T10:21:01.090Z,2.70
2018-12-21T10:23:33.427Z,2.70
2018-12-21T10:26:06.019Z,3.10
2018-12-21T10:28:38.642Z,2.63
2018-12-21T10:31:10.970Z,3.17
2018-12-21T10:33:43.311Z,3.30
2018-12-21T10:36:15.630Z,3.77
2018-12-21T10:38:47.954Z,4.50
2018-12-21T10:41:20.333Z,4.70
2018-12-21T10:43:52.657Z,7.13
2018-12-21T10:46:24.974Z,6.10
2018-12-21T10:48:57.324Z,7.30
2018-12-21T10:51:29.662Z,5.00
2018-12-21T10:54:01.986Z,5.70
2018-12-21T10:56:34.330Z,4.23
2018-12-21T10:59:06.643Z,2.33
2018-12-21T11:01:39.224Z,3.20
2018-12-21T11:04:11.570Z,2.10
2018-12-21T11:06:43.904Z,1.80
2018-12-21T11:09:16.219Z,1.80
2018-12-21T11:11:48.547Z,1.83
2018-12-21T11:14:20.883Z,1.50
2018-12-21T11:16:53.231Z,1.53
2018-12-21T11:19:25.554Z,1.90
2018-12-21T11:21:57.887Z,0.97
2018-12-21T11:24:35.446Z,1.60
2018-12-21T11:27:04.526Z,1.30
2018-12-21T11:29:36.874Z,1.40
2018-12-21T11:32:09.202Z,1.23
2018-12-21T11:34:41.591Z,1.30
2018-12-21T11:37:13.946Z,1.20
2018-12-21T11:39:46.270Z,1.00
2018-12-21T11:42:18.919Z,0.90
2018-12-21T11:44:51.236Z,1.10
2018-12-21T11:47:23.552Z,0.80
2018-12-21T11:49:55.866Z,1.70
2018-12-21T11:52:28.211Z,1.50
2018-12-21T11:55:00.584Z,0.90
2018-12-21T11:57:32.927Z,0.80
2018-12-21T12:00:07.127Z,1.07
2018-12-21T12:02:39.434Z,1.00
2018-12-21T12:05:11.750Z,0.87
2018-12-21T12:07:44.218Z,0.80
2018-12-21T12:10:16.546Z,1.00
2018-12-21T12:12:48.879Z,0.80
2018-12-21T12:15:21.202Z,0.80
2018-12-21T12:17:53.563Z,0.60
2018-12-21T12:20:25.895Z,0.80
2018-12-21T12:22:58.191Z,0.80
2018-12-21T12:25:30.504Z,0.80
2018-12-21T12:28:02.854Z,0.80
2018-12-21T12:30:35.162Z,0.93
2018-12-21T12:33:07.490Z,0.80
2018-12-21T12:35:39.799Z,0.87
2018-12-21T12:38:12.463Z,1.50
2018-12-21T12:40:44.782Z,1.20
2018-12-21T12:43:17.200Z,1.10
2018-12-21T12:45:49.591Z,0.90
2018-12-21T12:48:21.974Z,0.73
2018-12-21T12:50:54.278Z,0.80
2018-12-21T12:53:26.611Z,1.07
2018-12-21T12:55:58.943Z,1.10
2018-12-21T12:58:31.263Z,0.80
2018-12-21T13:01:03.590Z,1.00
2018-12-21T13:03:35.929Z,1.00
2018-12-21T13:06:08.255Z,1.20
2018-12-21T13:08:40.631Z,1.10
2018-12-21T13:11:12.950Z,1.00
2018-12-21T13:13:45.510Z,1.20
2018-12-21T13:16:17.842Z,1.03
2018-12-21T13:18:50.222Z,1.03
2018-12-21T13:21:22.932Z,0.90
2018-12-21T13:23:55.262Z,1.17
2018-12-21T13:26:27.566Z,1.00
2018-12-21T13:28:59.902Z,0.97
2018-12-21T13:31:32.250Z,1.00
2018-12-21T13:34:04.662Z,1.17
2018-12-21T13:36:36.974Z,1.30
2018-12-21T13:39:09.311Z,1.30
2018-12-21T13:41:41.618Z,1.57
2018-12-21T13:44:13.929Z,1.40
2018-12-21T13:46:46.251Z,1.50
2018-12-21T13:49:18.578Z,1.63
2018-12-21T13:51:50.914Z,1.30
2018-12-21T13:54:23.244Z,1.40
2018-12-21T13:56:55.574Z,1.40
2018-12-21T13:59:28.147Z,1.83
2018-12-21T14:02:00.474Z,1.10
2018-12-21T14:04:32.794Z,1.03
2018-12-21T14:07:05.137Z,1.43
2018-12-21T14:09:37.473Z,1.37
2018-12-21T14:12:09.786Z,1.33
2018-12-21T14:14:42.129Z,1.30
2018-12-21T14:17:14.458Z,1.20
2018-12-21T14:19:46.786Z,1.50
2018-12-21T14:22:19.198Z,1.57
2018-12-21T14:24:51.518Z,1.40
2018-12-21T14:27:23.833Z,1.50
2018-12-21T14:29:56.462Z,1.30
2018-12-21T14:32:28.775Z,1.30
2018-12-21T14:35:01.192Z,1.30
2018-12-21T14:37:33.558Z,1.57
2018-12-21T14:40:06.035Z,1.83
2018-12-21T14:42:38.369Z,1.40
2018-12-21T14:45:10.936Z,1.30
2018-12-21T14:47:43.244Z,1.30
2018-12-21T14:50:15.549Z,1.37
2018-12-21T14:52:47.862Z,1.30
2018-12-21T14:55:20.207Z,1.63
2018-12-21T14:57:52.837Z,1.43
2018-12-21T15:00:25.498Z,1.30
2018-12-21T15:02:57.810Z,1.50
2018-12-21T15:05:30.443Z,1.47
2018-12-21T15:08:02.759Z,1.55
2018-12-21T15:10:35.087Z,1.60
2018-12-21T15:13:07.629Z,1.60
2018-12-21T15:15:40.251Z,1.70
2018-12-21T15:18:12.569Z,1.67
2018-12-21T15:20:44.872Z,1.70
2018-12-21T15:23:17.176Z,2.30
2018-12-21T15:25:49.498Z,1.87
2018-12-21T15:28:21.794Z,2.47
2018-12-21T15:30:54.150Z,2.40
2018-12-21T15:33:26.446Z,2.87
2018-12-21T15:35:58.774Z,2.30
2018-12-21T15:38:31.089Z,3.63
2018-12-21T15:41:03.434Z,2.97
2018-12-21T15:43:35.749Z,2.83
2018-12-21T15:46:08.103Z,2.97
2018-12-21T15:48:40.407Z,3.73
2018-12-21T15:51:13.017Z,3.10
2018-12-21T15:53:45.352Z,3.40
2018-12-21T15:56:17.777Z,3.77
2018-12-21T15:58:50.428Z,3.23
2018-12-21T16:01:22.944Z,3.20
2018-12-21T16:03:55.302Z,3.97
2018-12-21T16:06:27.660Z,3.70
2018-12-21T16:08:59.983Z,3.57
2018-12-21T16:11:32.384Z,3.63
2018-12-21T16:14:04.706Z,3.40
2018-12-21T16:16:37.685Z,4.23
2018-12-21T16:19:10.032Z,4.53
2018-12-21T16:21:43.607Z,4.40
2018-12-21T16:24:16.119Z,3.80
2018-12-21T16:26:48.874Z,4.17
2018-12-21T16:29:21.202Z,4.37
2018-12-21T16:31:53.567Z,4.13
2018-12-21T16:34:25.881Z,3.97
2018-12-21T16:36:58.331Z,4.80
2018-12-21T16:39:30.850Z,4.87
2018-12-21T16:42:03.354Z,4.00
2018-12-21T16:44:35.734Z,5.00
2018-12-21T16:47:08.630Z,4.40
2018-12-21T16:49:42.298Z,4.50
2018-12-21T16:52:14.914Z,4.93
2018-12-21T16:54:47.262Z,4.87
2018-12-21T16:57:19.615Z,4.67
2018-12-21T16:59:51.983Z,4.57
2018-12-21T17:02:24.448Z,4.47
2018-12-21T17:04:56.770Z,4.50
2018-12-21T17:07:29.086Z,4.57
2018-12-21T17:10:01.413Z,5.10
2018-12-21T17:12:33.839Z,5.10
2018-12-21T17:15:07.426Z,5.00
2018-12-21T17:17:39.792Z,5.00
2018-12-21T17:20:12.090Z,4.50
2018-12-21T17:22:44.479Z,5.27
2018-12-21T17:25:16.791Z,5.60
2018-12-21T17:27:49.382Z,5.00
2018-12-21T17:30:21.705Z,5.80
2018-12-21T17:32:54.729Z,5.03
2018-12-21T17:35:27.121Z,5.87
2018-12-21T17:37:59.436Z,6.33
2018-12-21T17:40:31.850Z,5.73
2018-12-21T17:43:04.430Z,6.53
2018-12-21T17:45:36.750Z,6.27
2018-12-21T17:48:09.062Z,6.30
2018-12-21T17:50:41.412Z,5.80
2018-12-21T17:53:13.759Z,5.93
2018-12-21T17:55:46.395Z,5.70
2018-12-21T17:58:19.819Z,6.47
2018-12-21T18:00:53.577Z,5.93
2018-12-21T18:03:33.383Z,5.73
2018-12-21T18:06:05.695Z,5.43
2018-12-21T18:08:38.058Z,5.77
2018-12-21T18:11:10.394Z,4.87
2018-12-21T18:13:42.698Z,5.67
2018-12-21T18:16:15.023Z,5.57
2018-12-21T18:18:47.422Z,6.33
2018-12-21T18:21:19.729Z,6.93
2018-12-21T18:23:52.066Z,6.30
2018-12-21T18:26:24.734Z,6.00
2018-12-21T18:28:57.069Z,6.27
2018-12-21T18:32:41.063Z,6.87
2018-12-21T18:35:15.833Z,6.17
2018-12-21T18:37:52.912Z,6.10
2018-12-21T18:40:25.497Z,6.57
2018-12-21T18:42:57.813Z,5.90
2018-12-21T18:45:30.182Z,6.57
2018-12-21T18:48:02.498Z,5.80
2018-12-21T18:50:34.849Z,6.00
2018-12-21T18:53:07.383Z,6.47
2018-12-21T18:55:39.899Z,5.83
2018-12-21T18:58:12.539Z,5.57
2018-12-21T19:00:44.858Z,6.60
2018-12-21T19:03:17.171Z,6.00
2018-12-21T19:05:49.481Z,7.17
2018-12-21T19:08:21.795Z,5.33
2018-12-21T19:10:54.127Z,5.67
2018-12-21T19:13:26.433Z,5.93
2018-12-21T19:15:58.771Z,5.63
2018-12-21T19:18:31.093Z,6.27
2018-12-21T19:21:03.449Z,6.03
2018-12-21T19:23:35.836Z,6.23
2018-12-21T19:26:08.478Z,5.73
2018-12-21T19:28:40.797Z,6.00
2018-12-21T19:31:13.177Z,6.23
2018-12-21T19:33:45.506Z,6.47
2018-12-21T19:36:17.836Z,7.03
2018-12-21T19:38:50.440Z,6.27
2018-12-21T19:41:23.274Z,6.30
2018-12-21T19:43:55.593Z,7.10
2018-12-21T19:46:27.922Z,5.80
2018-12-21T19:49:00.239Z,6.57
2018-12-21T19:51:32.606Z,6.80
2018-12-21T19:54:05.207Z,7.07
2018-12-21T19:56:46.903Z,6.10
2018-12-21T19:59:19.439Z,5.77
2018-12-21T20:01:51.802Z,7.10
2018-12-21T20:04:24.121Z,5.90
2018-12-21T20:06:56.655Z,7.20
2018-12-21T20:09:28.959Z,6.27
2018-12-21T20:12:01.529Z,6.60
2018-12-21T20:14:33.859Z,6.50
2018-12-21T20:17:06.187Z,6.23
2018-12-21T20:19:38.884Z,6.83
2018-12-21T20:22:11.465Z,6.87
2018-12-21T20:24:43.781Z,6.30
2018-12-21T20:27:16.131Z,6.97
2018-12-21T20:29:48.435Z,7.10
2018-12-21T20:32:21.942Z,6.77
2018-12-21T20:34:54.730Z,6.40
2018-12-21T20:37:27.090Z,6.33
2018-12-21T20:39:59.411Z,7.20
2018-12-21T20:42:31.729Z,6.60
2018-12-21T20:45:04.923Z,7.50
2018-12-21T20:47:37.230Z,7.10
2018-12-21T20:50:12.722Z,7.43
2018-12-21T20:52:45.034Z,6.87
2018-12-21T20:55:17.350Z,6.90
2018-12-21T20:57:52.197Z,6.27
2018-12-21T21:00:24.522Z,6.90
2018-12-21T21:02:57.166Z,6.70
2018-12-21T21:05:29.466Z,6.53
2018-12-21T21:08:03.263Z,6.37
2018-12-21T21:10:42.643Z,6.87
2018-12-21T21:13:19.218Z,7.17
2018-12-21T21:15:49.461Z,7.03
2018-12-21T21:18:21.841Z,7.00
2018-12-21T21:20:54.149Z,6.80
2018-12-21T21:23:26.482Z,7.80
2018-12-21T21:25:58.826Z,6.33
2018-12-21T21:28:31.163Z,7.50
2018-12-21T21:31:03.466Z,6.47
2018-12-21T21:33:35.875Z,6.97
2018-12-21T21:36:08.187Z,7.60
2018-12-21T21:38:40.517Z,6.53
2018-12-21T21:41:12.817Z,6.33
2018-12-21T21:43:45.153Z,6.73
2018-12-21T21:46:17.550Z,7.27
2018-12-21T21:48:49.868Z,6.43
2018-12-21T21:51:22.174Z,5.77
2018-12-21T21:53:54.760Z,6.17
2018-12-21T21:56:27.084Z,5.80
2018-12-21T21:58:59.480Z,7.50
2018-12-21T22:01:31.895Z,7.17
2018-12-21T22:04:04.305Z,6.63
2018-12-21T22:06:36.637Z,7.27
2018-12-21T22:09:09.234Z,7.40
2018-12-21T22:11:41.546Z,6.37
2018-12-21T22:14:13.905Z,7.77
2018-12-21T22:16:46.223Z,8.33
2018-12-21T22:19:18.547Z,6.50
2018-12-21T22:21:51.142Z,7.53
2018-12-21T22:24:23.449Z,6.30
2018-12-21T22:26:55.795Z,6.40
2018-12-21T22:29:28.371Z,7.57
2018-12-21T22:32:00.704Z,6.57
2018-12-21T22:34:33.038Z,7.33
2018-12-21T22:37:05.362Z,6.33
2018-12-21T22:39:37.694Z,7.27
2018-12-21T22:42:10.021Z,6.60
2018-12-21T22:44:42.369Z,7.07
2018-12-21T22:47:14.791Z,6.83
2018-12-21T22:49:47.108Z,6.53
2018-12-21T22:52:19.405Z,6.80
2018-12-21T22:54:51.714Z,7.20
2018-12-21T22:57:24.026Z,6.47
2018-12-21T22:59:56.343Z,7.10
2018-12-21T23:02:28.898Z,7.17
2018-12-21T23:05:01.231Z,7.30
2018-12-21T23:07:33.530Z,6.87
2018-12-21T23:10:06.586Z,6.40
2018-12-21T23:12:39.180Z,6.87
2018-12-21T23:15:11.491Z,6.87
2018-12-21T23:17:43.801Z,6.27
2018-12-21T23:20:16.411Z,6.47
2018-12-21T23:22:49.034Z,6.67
2018-12-21T23:25:21.618Z,6.90
2018-12-21T23:27:53.922Z,6.93
2018-12-21T23:30:26.244Z,6.70
2018-12-21T23:32:58.566Z,7.10
2018-12-21T23:35:31.155Z,7.20
2018-12-21T23:38:03.538Z,7.17
2018-12-21T23:40:35.870Z,7.20
2018-12-21T23:43:08.517Z,7.17
2018-12-21T23:45:41.094Z,6.57
2018-12-21T23:48:13.447Z,6.43
2018-12-21T23:50:45.757Z,6.83
2018-12-21T23:53:18.062Z,6.83
2018-12-21T23:55:50.378Z,5.63
2018-12-21T23:58:22.681Z,6.77
